Terminal Aerodrome Forecast
Issued by NWS Cleveland, OH

Home | Current Version | Previous Version | Text Only | Print | Product List | Glossary On
Versions: 1 2 3 4 5 6 7 8 9 10 11 12 13 14 15 16 17 18 19 20 21 22 23 24 25
250
FTUS41 KCLE 270217 AAB
TAFTOL
TAF AMD
KTOL 270217Z 2702/2724 08005KT 6SM -SHRA SCT025 OVC050
      TEMPO 2703/2705 2SM -TSRA OVC025CB
     FM270500 33003KT 6SM -SHRA OVC015
      TEMPO 2709/2713 3SM BR OVC008
     FM271600 06006KT P6SM BKN045
     FM272000 07006KT P6SM SCT035 BKN100=

USA.gov is the U.S. government's official web portal to all federal, state and local government web resources and services.